createdAt,value
2022-10-11T00:03:01.873Z,99558.72
2022-10-11T00:06:05.895Z,99573.03
2022-10-11T00:09:08.492Z,99567.72
2022-10-11T00:12:10.487Z,99569.56
2022-10-11T00:15:19.258Z,99577.22
2022-10-11T00:18:21.970Z,99575.72
2022-10-11T00:21:23.846Z,99575.19
2022-10-11T00:24:25.563Z,99568.88
2022-10-11T00:27:27.494Z,99562.19
2022-10-11T00:30:29.204Z,99563.69
2022-10-11T00:33:30.971Z,99566.84
2022-10-11T00:36:32.722Z,99562.69
2022-10-11T00:39:34.465Z,99559.84
2022-10-11T00:42:36.196Z,99557.03
2022-10-11T00:45:37.812Z,99556.03
2022-10-11T00:48:46.150Z,99564.38
2022-10-11T00:51:54.148Z,99558.88
2022-10-11T00:54:58.184Z,99562.56
2022-10-11T00:58:00.152Z,99561.25
2022-10-11T01:01:02.708Z,99568.72
2022-10-11T01:04:05.104Z,99568.09
2022-10-11T01:07:07.002Z,99568.78
2022-10-11T01:10:10.517Z,99569.78
2022-10-11T01:13:36.780Z,99570.47
2022-10-11T01:16:52.675Z,99565.97
2022-10-11T01:20:06.536Z,99570.69
2022-10-11T01:23:17.078Z,99573.47
2022-10-11T01:26:40.543Z,99573.34
2022-10-11T01:29:57.334Z,99568.84
2022-10-11T01:33:27.404Z,99571.84
2022-10-11T01:36:40.423Z,99565.34
2022-10-11T01:39:55.524Z,99567.00
2022-10-11T01:42:57.595Z,99561.84
2022-10-11T01:46:02.311Z,99565.03
2022-10-11T01:49:05.606Z,99570.19
2022-10-11T01:52:08.050Z,99570.34
2022-10-11T01:55:29.858Z,99569.88
2022-10-11T01:59:00.834Z,99570.53
2022-10-11T02:02:03.035Z,99575.19
2022-10-11T02:05:29.322Z,99575.19
2022-10-11T02:08:42.889Z,99573.00
2022-10-11T02:11:44.691Z,99580.69
2022-10-11T02:14:50.960Z,99586.69
2022-10-11T02:17:57.964Z,99585.88
2022-10-11T02:21:03.831Z,99586.88
2022-10-11T02:24:23.368Z,99585.53
2022-10-11T02:27:30.031Z,99585.88
2022-10-11T02:30:32.713Z,99586.19
2022-10-11T02:33:42.867Z,99596.38
2022-10-11T02:37:09.264Z,99588.88
2022-10-11T02:40:15.658Z,99588.84
2022-10-11T02:43:31.223Z,99592.03
2022-10-11T02:46:34.543Z,99599.69
2022-10-11T02:49:36.789Z,99603.16
2022-10-11T02:52:38.642Z,99606.31
2022-10-11T02:55:40.503Z,99605.97
2022-10-11T02:58:42.243Z,99602.13
2022-10-11T03:01:44.084Z,99613.44
2022-10-11T03:04:47.099Z,99611.09
2022-10-11T03:07:48.819Z,99615.72
2022-10-11T03:10:50.493Z,99620.72
2022-10-11T03:13:52.543Z,99624.16
2022-10-11T03:16:54.308Z,99624.63
2022-10-11T03:19:55.998Z,99626.94
2022-10-11T03:22:57.724Z,99631.06
2022-10-11T03:25:59.979Z,99627.56
2022-10-11T03:29:01.680Z,99630.69
2022-10-11T03:32:05.983Z,99635.00
2022-10-11T03:35:08.050Z,99645.13
2022-10-11T03:38:13.162Z,99654.13
2022-10-11T03:41:14.913Z,99643.41
2022-10-11T03:44:17.123Z,99649.06
2022-10-11T03:47:19.107Z,99655.38
2022-10-11T03:50:20.791Z,99652.84
2022-10-11T03:53:22.495Z,99656.22
2022-10-11T03:56:24.193Z,99651.38
2022-10-11T03:59:25.965Z,99650.25
2022-10-11T04:02:27.733Z,99650.41
2022-10-11T04:05:30.840Z,99651.53
2022-10-11T04:08:32.562Z,99654.84
2022-10-11T04:11:34.326Z,99660.63
2022-10-11T04:14:36.089Z,99666.94
2022-10-11T04:17:37.877Z,99662.47
2022-10-11T04:20:39.614Z,99655.75
2022-10-11T04:23:41.474Z,99660.25
2022-10-11T04:26:44.284Z,99659.97
2022-10-11T04:29:45.990Z,99658.25
2022-10-11T04:32:48.197Z,99671.94
2022-10-11T04:35:53.923Z,99668.00
2022-10-11T04:38:56.280Z,99664.66
2022-10-11T04:41:58.061Z,99675.84
2022-10-11T04:44:59.826Z,99665.84
2022-10-11T04:48:01.599Z,99671.03
2022-10-11T04:51:03.349Z,99666.03
2022-10-11T04:54:05.174Z,99669.66
2022-10-11T04:57:07.499Z,99671.34
2022-10-11T05:00:10.139Z,99668.00
2022-10-11T05:03:11.901Z,99673.66
2022-10-11T05:06:14.215Z,99673.66
2022-10-11T05:09:16.218Z,99683.47
2022-10-11T05:12:18.030Z,99679.25
2022-10-11T05:15:19.814Z,99677.75
2022-10-11T05:18:21.570Z,99685.88
2022-10-11T05:21:26.022Z,99692.88
2022-10-11T05:24:27.809Z,99694.28
2022-10-11T05:27:29.508Z,99695.28
2022-10-11T05:30:31.393Z,99704.94
2022-10-11T05:33:33.977Z,99704.84
2022-10-11T05:36:35.704Z,99702.84
2022-10-11T05:39:37.411Z,99712.75
2022-10-11T05:42:39.146Z,99712.25
2022-10-11T05:45:42.985Z,99716.03
2022-10-11T05:48:44.741Z,99714.44
2022-10-11T05:51:46.557Z,99719.72
2022-10-11T05:54:48.710Z,99721.16
2022-10-11T05:57:57.298Z,99726.28
2022-10-11T06:00:59.074Z,99720.00
2022-10-11T06:04:01.036Z,99734.41
2022-10-11T06:07:03.803Z,99728.66
2022-10-11T06:10:06.786Z,99732.41
2022-10-11T06:13:09.631Z,99737.28
2022-10-11T06:16:11.913Z,99730.13
2022-10-11T06:19:13.669Z,99738.16
2022-10-11T06:22:15.602Z,99730.59
2022-10-11T06:25:17.471Z,99742.47
2022-10-11T06:28:22.983Z,99738.97
2022-10-11T06:31:24.902Z,99737.25
2022-10-11T06:34:26.780Z,99738.72
2022-10-11T06:37:29.561Z,99743.75
2022-10-11T06:40:31.341Z,99746.06
2022-10-11T06:43:32.988Z,99755.09
2022-10-11T06:46:34.784Z,99755.41
2022-10-11T06:49:36.484Z,99758.19
2022-10-11T06:52:38.190Z,99755.97
2022-10-11T06:55:39.864Z,99760.03
2022-10-11T06:58:41.719Z,99762.66
2022-10-11T07:01:43.532Z,99768.19
2022-10-11T07:04:45.282Z,99761.19
2022-10-11T07:07:46.967Z,99769.13
2022-10-11T07:10:48.711Z,99768.56
2022-10-11T07:13:52.471Z,99766.66
2022-10-11T07:16:54.443Z,99768.75
2022-10-11T07:19:56.137Z,99770.78
2022-10-11T07:22:57.869Z,99765.44
2022-10-11T07:25:59.651Z,99770.53
2022-10-11T07:29:01.502Z,99774.22
2022-10-11T07:32:03.330Z,99773.81
2022-10-11T07:35:05.563Z,99780.66
2022-10-11T07:38:08.344Z,99780.25
2022-10-11T07:41:10.411Z,99771.78
2022-10-11T07:44:12.135Z,99784.81
2022-10-11T07:47:13.915Z,99773.63
2022-10-11T07:50:15.878Z,99767.91
2022-10-11T07:53:17.636Z,99772.72
2022-10-11T07:56:22.786Z,99784.38
2022-10-11T07:59:24.680Z,99788.50
2022-10-11T08:02:26.671Z,99785.97
2022-10-11T08:05:28.451Z,99774.66
2022-10-11T08:08:31.153Z,99783.59
2022-10-11T08:11:35.991Z,99771.78
2022-10-11T08:14:37.741Z,99776.13
2022-10-11T08:17:39.515Z,99776.19
2022-10-11T08:20:41.358Z,99778.09
2022-10-11T08:23:43.147Z,99773.84
2022-10-11T08:26:44.902Z,99772.03
2022-10-11T08:29:46.776Z,99773.41
2022-10-11T08:32:48.477Z,99787.22
2022-10-11T08:35:50.602Z,99782.97
2022-10-11T08:38:52.349Z,99785.44
2022-10-11T08:42:02.948Z,99788.97
2022-10-11T08:45:11.855Z,99789.19
2022-10-11T08:48:22.236Z,99790.38
2022-10-11T08:51:43.793Z,99799.88
2022-10-11T08:55:14.177Z,99794.78
2022-10-11T08:58:20.437Z,99792.50
2022-10-11T09:01:27.294Z,99797.19
2022-10-11T09:04:29.297Z,99802.84
2022-10-11T09:07:49.619Z,99803.97
2022-10-11T09:11:10.027Z,99797.25
2022-10-11T09:14:50.664Z,99799.94
2022-10-11T09:17:58.180Z,99798.19
2022-10-11T09:21:30.580Z,99799.72
2022-10-11T09:24:52.516Z,99787.94
2022-10-11T09:28:03.138Z,99787.88
2022-10-11T09:31:10.479Z,99788.53
2022-10-11T09:34:15.899Z,99794.03
2022-10-11T09:37:37.986Z,99793.41
2022-10-11T09:41:05.054Z,99778.00
2022-10-11T09:44:08.510Z,99787.38
2022-10-11T09:47:23.340Z,99793.25
2022-10-11T09:50:29.762Z,99779.81
2022-10-11T09:53:50.245Z,99776.16
2022-10-11T09:56:52.026Z,99784.28
2022-10-11T10:00:04.912Z,99784.94
2022-10-11T10:03:28.040Z,99793.81
2022-10-11T10:06:29.752Z,99784.38
2022-10-11T10:09:31.646Z,99779.66
2022-10-11T10:12:33.419Z,99776.16
2022-10-11T10:15:37.042Z,99779.72
2022-10-11T10:19:03.749Z,99775.75
2022-10-11T10:22:05.865Z,99777.63
2022-10-11T10:25:20.281Z,99774.75
2022-10-11T10:28:25.381Z,99772.91
2022-10-11T10:32:13.240Z,99770.03
2022-10-11T10:35:25.424Z,99763.16
2022-10-11T10:38:35.546Z,99765.47
2022-10-11T10:41:37.319Z,99760.28
2022-10-11T10:44:39.113Z,99773.75
2022-10-11T10:48:28.787Z,99765.88
2022-10-11T10:52:06.002Z,99770.22
2022-10-11T10:55:32.122Z,99770.22
2022-10-11T10:58:42.860Z,99770.22
2022-10-11T11:02:35.028Z,99756.44
2022-10-11T11:05:43.812Z,99757.28
2022-10-11T11:09:03.329Z,99756.88
2022-10-11T11:12:46.021Z,99745.59
2022-10-11T11:16:15.968Z,99748.50
2022-10-11T11:19:20.798Z,99750.44
2022-10-11T11:22:48.156Z,99744.75
2022-10-11T11:25:56.105Z,99744.31
2022-10-11T11:29:30.616Z,99740.97
2022-10-11T11:33:00.371Z,99743.03
2022-10-11T11:36:11.194Z,99745.94
2022-10-11T11:39:19.822Z,99724.81
2022-10-11T11:42:30.178Z,99724.53
2022-10-11T11:45:55.417Z,99729.00
2022-10-11T11:49:00.377Z,99723.38
2022-10-11T11:52:05.061Z,99721.25
2022-10-11T11:55:26.103Z,99721.06
2022-10-11T11:58:39.017Z,99720.13
2022-10-11T12:01:56.597Z,99713.13
2022-10-11T12:04:58.886Z,99705.41
2022-10-11T12:08:23.042Z,99722.59
2022-10-11T12:11:34.531Z,99718.88
2022-10-11T12:14:40.751Z,99709.91
2022-10-11T12:17:54.722Z,99714.25
2022-10-11T12:21:17.020Z,99708.47
2022-10-11T12:24:24.623Z,99700.97
2022-10-11T12:27:39.892Z,99706.78
2022-10-11T12:30:45.040Z,99704.53
2022-10-11T12:33:46.724Z,99709.75
2022-10-11T12:36:50.637Z,99702.38
2022-10-11T12:39:52.334Z,99708.03
2022-10-11T12:43:25.920Z,99703.91
2022-10-11T12:46:31.241Z,99707.38
2022-10-11T12:49:36.402Z,99702.91
2022-10-11T12:52:57.082Z,99703.63
2022-10-11T12:56:01.706Z,99710.06
2022-10-11T12:59:06.632Z,99695.84
2022-10-11T13:02:36.286Z,99697.31
2022-10-11T13:05:49.714Z,99696.66
2022-10-11T13:09:20.633Z,99703.16
2022-10-11T13:12:23.436Z,99708.16
2022-10-11T13:15:26.548Z,99701.94
2022-10-11T13:18:28.444Z,99695.94
2022-10-11T13:21:36.310Z,99699.69
2022-10-11T13:24:40.576Z,99708.38
2022-10-11T13:27:43.156Z,99703.63
2022-10-11T13:30:52.191Z,99707.78
2022-10-11T13:33:57.049Z,99704.47
2022-10-11T13:36:59.114Z,99697.84
2022-10-11T13:40:00.922Z,99704.25
2022-10-11T13:43:05.820Z,99704.47
2022-10-11T13:46:17.487Z,99706.56
2022-10-11T13:49:27.520Z,99707.63
2022-10-11T13:52:29.596Z,99707.03
2022-10-11T13:55:35.754Z,99705.19
2022-10-11T13:58:47.736Z,99708.72
2022-10-11T14:01:58.626Z,99701.28
2022-10-11T14:05:00.403Z,99708.31
2022-10-11T14:08:20.837Z,99708.31
2022-10-11T14:11:39.821Z,99702.25
2022-10-11T14:14:42.718Z,99703.75
2022-10-11T14:17:45.710Z,99706.03
2022-10-11T14:20:47.477Z,99700.84
2022-10-11T14:23:58.272Z,99712.06
2022-10-11T14:27:01.704Z,99705.00
2022-10-11T14:30:24.421Z,99707.09
2022-10-11T14:33:27.698Z,99707.31
2022-10-11T14:36:30.100Z,99713.97
2022-10-11T14:39:33.258Z,99717.50
2022-10-11T14:42:34.974Z,99716.66
2022-10-11T14:45:36.794Z,99723.09
2022-10-11T14:48:54.442Z,99719.59
2022-10-11T14:51:58.695Z,99723.72
2022-10-11T14:55:00.997Z,99723.31
2022-10-11T14:58:03.775Z,99721.66
2022-10-11T15:01:05.707Z,99711.50
2022-10-11T15:04:07.690Z,99719.97
2022-10-11T15:07:12.907Z,99722.47
2022-10-11T15:10:39.284Z,99718.72
2022-10-11T15:13:41.046Z,99728.47
2022-10-11T15:16:43.306Z,99726.63
2022-10-11T15:19:45.044Z,99736.09
2022-10-11T15:22:46.928Z,99741.47
2022-10-11T15:25:48.708Z,99738.94
2022-10-11T15:28:51.510Z,99740.78
2022-10-11T15:31:53.330Z,99748.78
2022-10-11T15:34:55.263Z,99748.09
2022-10-11T15:38:00.105Z,99742.69
2022-10-11T15:41:02.067Z,99743.84
2022-10-11T15:44:03.883Z,99742.75
2022-10-11T15:47:05.988Z,99745.97
2022-10-11T15:50:15.405Z,99746.75
2022-10-11T15:53:19.496Z,99745.91
2022-10-11T15:56:21.281Z,99749.56
2022-10-11T15:59:23.088Z,99746.19
2022-10-11T16:02:25.669Z,99760.03
2022-10-11T16:05:28.552Z,99755.22
2022-10-11T16:08:31.561Z,99755.97
2022-10-11T16:11:33.505Z,99755.91
2022-10-11T16:14:35.308Z,99757.13
2022-10-11T16:17:37.247Z,99762.44
2022-10-11T16:20:40.899Z,99765.25
2022-10-11T16:23:43.308Z,99769.94
2022-10-11T16:26:45.075Z,99777.09
2022-10-11T16:29:46.841Z,99775.56
2022-10-11T16:32:48.687Z,99780.22
2022-10-11T16:35:50.755Z,99786.53
2022-10-11T16:38:52.563Z,99787.69
2022-10-11T16:41:54.327Z,99790.25
2022-10-11T16:44:56.484Z,99784.63
2022-10-11T16:47:58.594Z,99787.44
2022-10-11T16:51:08.354Z,99791.13
2022-10-11T16:54:10.237Z,99788.88
2022-10-11T16:57:14.121Z,99787.50
2022-10-11T17:00:16.490Z,99795.41
2022-10-11T17:03:18.218Z,99793.16
2022-10-11T17:06:20.351Z,99803.72
2022-10-11T17:09:22.214Z,99800.19
2022-10-11T17:12:24.675Z,99807.25
2022-10-11T17:15:26.520Z,99797.91
2022-10-11T17:18:28.261Z,99811.00
2022-10-11T17:21:30.348Z,99808.41
2022-10-11T17:24:32.102Z,99806.94
2022-10-11T17:27:33.929Z,99807.84
2022-10-11T17:30:35.906Z,99816.19
2022-10-11T17:33:38.234Z,99821.09
2022-10-11T17:36:41.083Z,99816.91
2022-10-11T17:39:42.918Z,99821.16
2022-10-11T17:42:45.025Z,99824.59
2022-10-11T17:45:58.221Z,99830.31
2022-10-11T17:49:02.121Z,99838.59
2022-10-11T17:52:03.891Z,99841.84
2022-10-11T17:55:05.733Z,99840.53
2022-10-11T17:58:07.499Z,99853.66
2022-10-11T18:01:13.387Z,99845.63
2022-10-11T18:04:16.922Z,99848.00
2022-10-11T18:07:18.697Z,99848.19
2022-10-11T18:10:20.879Z,99849.84
2022-10-11T18:13:22.841Z,99849.03
2022-10-11T18:16:29.477Z,99857.06
2022-10-11T18:19:34.070Z,99852.06
2022-10-11T18:22:35.783Z,99854.09
2022-10-11T18:25:37.566Z,99855.94
2022-10-11T18:28:40.873Z,99853.41
2022-10-11T18:31:42.818Z,99852.97
2022-10-11T18:34:44.617Z,99853.13
2022-10-11T18:37:46.687Z,99858.84
2022-10-11T18:40:48.452Z,99847.84
2022-10-11T18:43:53.230Z,99850.81
2022-10-11T18:46:54.972Z,99858.19
2022-10-11T18:49:57.041Z,99849.13
2022-10-11T18:52:58.801Z,99847.94
2022-10-11T18:56:05.772Z,99849.06
2022-10-11T18:59:08.648Z,99858.78
2022-10-11T19:02:11.980Z,99858.44
2022-10-11T19:05:13.864Z,99859.47
2022-10-11T19:08:15.620Z,99851.56
2022-10-11T19:11:22.175Z,99856.78
2022-10-11T19:14:28.303Z,99860.44
2022-10-11T19:17:30.045Z,99861.66
2022-10-11T19:20:35.377Z,99857.75
2022-10-11T19:23:39.887Z,99863.50
2022-10-11T19:26:42.467Z,99862.38
2022-10-11T19:29:44.201Z,99857.84
2022-10-11T19:32:45.958Z,99866.91
2022-10-11T19:35:57.652Z,99870.53
2022-10-11T19:38:59.959Z,99876.59
2022-10-11T19:42:01.793Z,99878.47
2022-10-11T19:45:03.782Z,99879.63
2022-10-11T19:48:05.646Z,99880.00
2022-10-11T19:51:11.792Z,99884.34
2022-10-11T19:54:14.696Z,99890.88
2022-10-11T19:57:16.702Z,99883.66
2022-10-11T20:00:18.696Z,99888.19
2022-10-11T20:03:20.445Z,99890.88
2022-10-11T20:06:25.805Z,99893.41
2022-10-11T20:09:29.894Z,99885.91
2022-10-11T20:12:33.472Z,99885.06
2022-10-11T20:15:37.465Z,99887.44
2022-10-11T20:18:39.819Z,99890.13
2022-10-11T20:21:42.000Z,99884.75
2022-10-11T20:24:43.726Z,99896.19
2022-10-11T20:27:46.556Z,99896.19
2022-10-11T20:30:48.312Z,99884.75
2022-10-11T20:33:50.090Z,99893.19
2022-10-11T20:36:52.242Z,99889.16
2022-10-11T20:39:54.944Z,99890.19
2022-10-11T20:42:57.821Z,99890.34
2022-10-11T20:46:13.069Z,99884.81
2022-10-11T20:49:15.285Z,99886.19
2022-10-11T20:52:17.120Z,99895.06
2022-10-11T20:55:18.972Z,99888.88
2022-10-11T20:58:21.739Z,99889.69
2022-10-11T21:01:29.837Z,99895.88
2022-10-11T21:04:31.599Z,99891.56
2022-10-11T21:07:33.467Z,99898.97
2022-10-11T21:10:35.574Z,99894.31
2022-10-11T21:13:37.847Z,99897.84
2022-10-11T21:16:39.783Z,99903.06
2022-10-11T21:19:42.000Z,99900.06
2022-10-11T21:22:44.122Z,99903.06
2022-10-11T21:25:45.932Z,99899.06
2022-10-11T21:28:47.780Z,99893.91
2022-10-11T21:31:49.799Z,99902.28
2022-10-11T21:34:51.510Z,99898.94
2022-10-11T21:37:57.921Z,99896.06
2022-10-11T21:41:02.021Z,99910.66
2022-10-11T21:44:04.650Z,99903.00
2022-10-11T21:47:07.641Z,99898.66
2022-10-11T21:50:10.620Z,99897.13
2022-10-11T21:53:12.325Z,99904.50
2022-10-11T21:56:14.063Z,99897.50
2022-10-11T21:59:15.896Z,99897.63
2022-10-11T22:02:17.620Z,99894.13
2022-10-11T22:05:19.368Z,99903.34
2022-10-11T22:08:21.707Z,99908.06
2022-10-11T22:11:23.589Z,99900.53
2022-10-11T22:14:26.840Z,99908.38
2022-10-11T22:17:28.581Z,99903.53
2022-10-11T22:20:33.002Z,99900.38
2022-10-11T22:23:34.783Z,99898.72
2022-10-11T22:26:36.555Z,99905.41
2022-10-11T22:29:38.375Z,99897.84
2022-10-11T22:32:40.166Z,99891.50
2022-10-11T22:35:41.887Z,99909.88
2022-10-11T22:38:45.471Z,99907.72
2022-10-11T22:41:47.591Z,99917.56
2022-10-11T22:44:51.358Z,99909.19
2022-10-11T22:47:53.161Z,99917.56
2022-10-11T22:50:54.991Z,99910.88
2022-10-11T22:53:56.733Z,99909.22
2022-10-11T22:56:58.515Z,99915.53
2022-10-11T23:00:00.242Z,99915.38
2022-10-11T23:03:01.973Z,99916.88
2022-10-11T23:06:04.032Z,99907.72
2022-10-11T23:09:05.852Z,99917.41
2022-10-11T23:12:07.777Z,99919.22
2022-10-11T23:15:10.507Z,99916.38
2022-10-11T23:18:12.758Z,99921.06
2022-10-11T23:21:14.452Z,99917.56
2022-10-11T23:24:16.215Z,99910.19
2022-10-11T23:27:18.007Z,99920.91
2022-10-11T23:30:19.742Z,99916.38
2022-10-11T23:33:21.519Z,99915.56
2022-10-11T23:36:25.245Z,99921.41
2022-10-11T23:39:27.108Z,99928.75
2022-10-11T23:42:28.833Z,99931.41
2022-10-11T23:45:30.789Z,99925.25
2022-10-11T23:48:32.579Z,99927.09
2022-10-11T23:51:34.310Z,99925.06
2022-10-11T23:54:36.001Z,99929.44
2022-10-11T23:57:38.046Z,99928.44
